| time (UTC) | temp F | wind direction | speed knots | gust knots | rain 1hr in | rain 24hr in | rain mn in | humidity % | barometer mb |
| 20260505023051 | 58 | 202 | 1.7 | 0.0 | 0.00 | 0.00 | 0.00 | 53 | 1007.8 |
| 20260505021551 | 59 | 200 | 0.9 | 0.0 | 0.00 | 0.00 | 0.00 | 52 | 1008.2 |
| 20260505020020 | 59 | 198 | 2.6 | 0.0 | 0.00 | 0.00 | 0.00 | 51 | 1008.1 |
| 20260505014523 | 60 | 198 | 1.7 | 0.0 | 0.00 | 0.00 | 0.00 | 50 | 1007.8 |
| 20260505013049 | 60 | 201 | 2.6 | 0.0 | 0.00 | 0.00 | 0.00 | 49 | 1007.7 |
| 20260505011549 | 61 | 238 | 1.7 | 0.0 | 0.00 | 0.00 | 0.00 | 48 | 1007.2 |
| 20260505010105 | 61 | 175 | 2.6 | 0.0 | 0.00 | 0.00 | 0.00 | 48 | 1007.2 |
| 20260505004600 | 62 | 196 | 4.3 | 0.0 | 0.00 | 0.00 | 0.00 | 47 | 1006.9 |
| 20260505003050 | 62 | 203 | 3.5 | 0.0 | 0.00 | 0.00 | 0.00 | 46 | 1006.6 |
| 20260505001545 | 63 | 206 | 2.6 | 0.0 | 0.00 | 0.00 | 0.00 | 45 | 1006.1 |
| 20260505000041 | 64 | 209 | 4.3 | 0.0 | 0.00 | 0.00 | 0.00 | 44 | 1005.9 |
| 20260504234542 | 65 | 180 | 4.3 | 0.0 | 0.00 | 0.00 | 0.00 | 42 | 1005.5 |
| 20260504233040 | 66 | 209 | 4.3 | 0.0 | 0.00 | 0.00 | 0.00 | 40 | 1005.1 |
| 20260504231554 | 68 | 204 | 4.3 | 0.0 | 0.00 | 0.00 | 0.00 | 38 | 1004.9 |
| 20260504230009 | 70 | 216 | 3.5 | 0.0 | 0.00 | 0.00 | 0.00 | 35 | 1004.7 |
| 20260504224508 | 71 | 192 | 0.9 | 0.0 | 0.00 | 0.00 | 0.00 | 33 | 1004.3 |
| 20260504223006 | 72 | 201 | 2.6 | 0.0 | 0.00 | 0.00 | 0.00 | 31 | 1004.1 |
| 20260504221505 | 72 | 181 | 1.7 | 0.0 | 0.00 | 0.00 | 0.00 | 31 | 1004.2 |
| 20260504220004 | 72 | 292 | 1.7 | 0.0 | 0.00 | 0.00 | 0.00 | 31 | 1004.5 |
| 20260504214504 | 73 | 233 | 1.7 | 0.0 | 0.00 | 0.00 | 0.00 | 30 | 1004.4 |
| 20260504213039 | 73 | 231 | 2.6 | 0.0 | 0.00 | 0.00 | 0.00 | 30 | 1004.5 |
| 20260504211535 | 73 | 298 | 3.5 | 0.0 | 0.00 | 0.00 | 0.00 | 30 | 1004.3 |
| 20260504210030 | 72 | 234 | 1.7 | 0.0 | 0.00 | 0.00 | 0.00 | 31 | 1004.2 |
| 20260504204533 | 72 | 313 | 1.7 | 0.0 | 0.00 | 0.00 | 0.00 | 31 | 1004.5 |
| 20260504203028 | 73 | 205 | 2.6 | 0.0 | 0.00 | 0.00 | 0.00 | 29 | 1004.4 |
| 20260504201529 | 74 | 239 | 2.6 | 0.0 | 0.00 | 0.00 | 0.00 | 29 | 1004.5 |
| 20260504200028 | 75 | 304 | 2.6 | 0.0 | 0.00 | 0.00 | 0.00 | 28 | 1004.3 |
| 20260504194525 | 74 | 200 | 5.2 | 0.0 | 0.00 | 0.00 | 0.00 | 28 | 1004.5 |
| 20260504193023 | 75 | 284 | 3.5 | 0.0 | 0.00 | 0.00 | 0.00 | 27 | 1004.4 |
| 20260504191524 | 75 | 259 | 2.6 | 0.0 | 0.00 | 0.00 | 0.00 | 27 | 1004.5 |
| 20260504190020 | 73 | 212 | 5.2 | 0.0 | 0.00 | 0.00 | 0.00 | 27 | 1004.6 |
| 20260504184529 | 73 | 232 | 4.3 | 0.0 | 0.00 | 0.00 | 0.00 | 28 | 1005.1 |
| 20260504183013 | 73 | 289 | 7.0 | 0.0 | 0.00 | 0.00 | 0.00 | 29 | 1005.2 |
| 20260504181512 | 73 | 183 | 3.5 | 0.0 | 0.00 | 0.00 | 0.00 | 28 | 1005.0 |
| 20260504180009 | 72 | 240 | 4.3 | 0.0 | 0.00 | 0.00 | 0.00 | 29 | 1005.0 |
| 20260504174538 | 72 | 259 | 5.2 | 0.0 | 0.00 | 0.00 | 0.00 | 29 | 1005.3 |
| 20260504173038 | 72 | 233 | 4.3 | 0.0 | 0.00 | 0.00 | 0.00 | 28 | 1005.6 |
| 20260504171531 | 72 | 216 | 4.3 | 0.0 | 0.00 | 0.00 | 0.00 | 30 | 1005.4 |
| 20260504081539 | 44 | 282 | 0.0 | 0.0 | 0.00 | 0.00 | 0.00 | 59 | 1008.4 |
| 20260504044505 | 37 | 282 | 0.0 | 0.0 | 0.00 | 0.00 | 0.00 | 67 | 1008.4 |
| 20260504043007 | 37 | 282 | 0.0 | 0.0 | 0.00 | 0.00 | 0.00 | 68 | 1008.2 |
| 20260504041501 | 37 | 282 | 0.0 | 0.0 | 0.00 | 0.00 | 0.00 | 67 | 1008.3 |
| 20260504040029 | 37 | 282 | 0.0 | 0.0 | 0.00 | 0.00 | 0.00 | 68 | 1008.2 |
| 20260504034528 | 38 | 282 | 0.0 | 0.0 | 0.00 | 0.00 | 0.01 | 66 | 1008.1 |
| 20260504033023 | 38 | 282 | 0.0 | 0.0 | 0.00 | 0.00 | 0.01 | 66 | 1008.0 |
| 20260504031522 | 38 | 282 | 0.0 | 0.0 | 0.00 | 0.00 | 0.01 | 65 | 1007.9 |
| 20260504030023 | 38 | 282 | 0.0 | 0.0 | 0.00 | 0.00 | 0.01 | 65 | 1007.9 |
| 20260504024524 | 39 | 282 | 0.0 | 0.0 | 0.00 | 0.00 | 0.01 | 64 | 1008.0 |